sensor_id;sensor_type;location;lat;lon;timestamp;P1;durP1;ratioP1;P2;durP2;ratioP2
85295;SDS011;76389;43.958;2.882;2024-02-23T00:01:52;7.15;;;0.47;;
85295;SDS011;76389;43.958;2.882;2024-02-23T00:04:18;3.20;;;0.50;;
85295;SDS011;76389;43.958;2.882;2024-02-23T00:06:45;14.70;;;1.33;;
85295;SDS011;76389;43.958;2.882;2024-02-23T00:09:11;0.50;;;0.20;;
85295;SDS011;76389;43.958;2.882;2024-02-23T00:11:40;7.18;;;1.33;;
85295;SDS011;76389;43.958;2.882;2024-02-23T00:14:06;4.43;;;0.63;;
85295;SDS011;76389;43.958;2.882;2024-02-23T00:16:38;3.58;;;0.60;;
85295;SDS011;76389;43.958;2.882;2024-02-23T00:19:07;6.57;;;0.63;;
85295;SDS011;76389;43.958;2.882;2024-02-23T00:21:33;9.73;;;1.17;;
85295;SDS011;76389;43.958;2.882;2024-02-23T00:23:59;4.40;;;0.95;;
85295;SDS011;76389;43.958;2.882;2024-02-23T00:26:25;10.68;;;1.13;;
85295;SDS011;76389;43.958;2.882;2024-02-23T00:28:53;6.40;;;0.68;;
85295;SDS011;76389;43.958;2.882;2024-02-23T00:31:19;6.82;;;0.55;;
85295;SDS011;76389;43.958;2.882;2024-02-23T00:33:45;14.00;;;1.85;;
85295;SDS011;76389;43.958;2.882;2024-02-23T00:36:11;6.18;;;0.73;;
85295;SDS011;76389;43.958;2.882;2024-02-23T00:38:37;10.20;;;1.30;;
85295;SDS011;76389;43.958;2.882;2024-02-23T00:41:04;9.20;;;1.00;;
85295;SDS011;76389;43.958;2.882;2024-02-23T00:43:37;4.50;;;0.65;;
85295;SDS011;76389;43.958;2.882;2024-02-23T00:46:03;15.73;;;1.98;;
85295;SDS011;76389;43.958;2.882;2024-02-23T00:48:29;13.65;;;1.83;;
85295;SDS011;76389;43.958;2.882;2024-02-23T00:50:55;5.03;;;1.33;;
85295;SDS011;76389;43.958;2.882;2024-02-23T00:53:21;7.57;;;0.98;;
85295;SDS011;76389;43.958;2.882;2024-02-23T00:55:47;4.63;;;1.20;;
85295;SDS011;76389;43.958;2.882;2024-02-23T00:58:14;9.35;;;0.85;;
85295;SDS011;76389;43.958;2.882;2024-02-23T01:00:41;7.28;;;0.63;;
85295;SDS011;76389;43.958;2.882;2024-02-23T01:03:07;6.13;;;0.82;;
85295;SDS011;76389;43.958;2.882;2024-02-23T01:05:33;6.07;;;0.73;;
85295;SDS011;76389;43.958;2.882;2024-02-23T01:07:59;7.57;;;1.25;;
85295;SDS011;76389;43.958;2.882;2024-02-23T01:10:26;7.07;;;0.80;;
85295;SDS011;76389;43.958;2.882;2024-02-23T01:12:52;8.15;;;1.02;;
85295;SDS011;76389;43.958;2.882;2024-02-23T01:15:18;7.63;;;1.10;;
85295;SDS011;76389;43.958;2.882;2024-02-23T01:17:45;10.10;;;1.75;;
85295;SDS011;76389;43.958;2.882;2024-02-23T01:20:11;7.43;;;0.75;;
85295;SDS011;76389;43.958;2.882;2024-02-23T01:22:37;9.73;;;1.15;;
85295;SDS011;76389;43.958;2.882;2024-02-23T01:25:04;7.80;;;1.45;;
85295;SDS011;76389;43.958;2.882;2024-02-23T01:27:30;10.63;;;0.73;;
85295;SDS011;76389;43.958;2.882;2024-02-23T01:29:56;8.80;;;1.45;;
85295;SDS011;76389;43.958;2.882;2024-02-23T01:32:22;9.65;;;0.52;;
85295;SDS011;76389;43.958;2.882;2024-02-23T01:34:48;10.88;;;1.65;;
85295;SDS011;76389;43.958;2.882;2024-02-23T01:37:14;3.78;;;0.93;;
85295;SDS011;76389;43.958;2.882;2024-02-23T01:39:40;4.10;;;1.08;;
85295;SDS011;76389;43.958;2.882;2024-02-23T01:42:07;15.18;;;1.27;;
85295;SDS011;76389;43.958;2.882;2024-02-23T01:44:33;7.45;;;0.95;;
85295;SDS011;76389;43.958;2.882;2024-02-23T01:47:00;12.30;;;1.08;;
85295;SDS011;76389;43.958;2.882;2024-02-23T01:49:26;10.57;;;1.05;;
85295;SDS011;76389;43.958;2.882;2024-02-23T01:51:57;8.77;;;1.60;;
85295;SDS011;76389;43.958;2.882;2024-02-23T01:54:23;13.05;;;1.52;;
85295;SDS011;76389;43.958;2.882;2024-02-23T01:56:50;14.25;;;1.48;;
85295;SDS011;76389;43.958;2.882;2024-02-23T01:59:16;9.30;;;1.48;;
85295;SDS011;76389;43.958;2.882;2024-02-23T02:01:43;3.97;;;0.95;;
85295;SDS011;76389;43.958;2.882;2024-02-23T02:04:12;7.75;;;1.50;;
85295;SDS011;76389;43.958;2.882;2024-02-23T02:06:38;11.48;;;2.15;;
85295;SDS011;76389;43.958;2.882;2024-02-23T02:09:05;10.50;;;2.10;;
85295;SDS011;76389;43.958;2.882;2024-02-23T02:11:31;14.18;;;1.98;;
85295;SDS011;76389;43.958;2.882;2024-02-23T02:13:57;10.57;;;1.05;;
85295;SDS011;76389;43.958;2.882;2024-02-23T02:16:23;8.73;;;1.13;;
85295;SDS011;76389;43.958;2.882;2024-02-23T02:18:49;8.32;;;1.25;;
85295;SDS011;76389;43.958;2.882;2024-02-23T02:21:15;10.50;;;0.98;;
85295;SDS011;76389;43.958;2.882;2024-02-23T02:23:41;6.28;;;1.33;;
85295;SDS011;76389;43.958;2.882;2024-02-23T02:26:08;11.60;;;1.00;;
85295;SDS011;76389;43.958;2.882;2024-02-23T02:28:34;13.50;;;0.90;;
85295;SDS011;76389;43.958;2.882;2024-02-23T02:31:00;11.32;;;1.70;;
85295;SDS011;76389;43.958;2.882;2024-02-23T02:33:26;10.32;;;1.35;;
85295;SDS011;76389;43.958;2.882;2024-02-23T02:35:52;8.90;;;1.70;;
85295;SDS011;76389;43.958;2.882;2024-02-23T02:38:18;12.75;;;0.88;;
85295;SDS011;76389;43.958;2.882;2024-02-23T02:40:44;10.75;;;1.50;;
85295;SDS011;76389;43.958;2.882;2024-02-23T02:43:10;16.77;;;1.23;;
85295;SDS011;76389;43.958;2.882;2024-02-23T02:45:37;7.60;;;1.08;;
85295;SDS011;76389;43.958;2.882;2024-02-23T02:48:03;9.57;;;1.40;;
85295;SDS011;76389;43.958;2.882;2024-02-23T02:50:30;5.85;;;0.70;;
85295;SDS011;76389;43.958;2.882;2024-02-23T02:52:56;8.80;;;1.45;;
85295;SDS011;76389;43.958;2.882;2024-02-23T02:55:22;3.10;;;0.43;;
85295;SDS011;76389;43.958;2.882;2024-02-23T02:57:48;10.32;;;0.90;;
85295;SDS011;76389;43.958;2.882;2024-02-23T03:00:15;9.52;;;1.60;;
85295;SDS011;76389;43.958;2.882;2024-02-23T03:02:41;8.88;;;1.33;;
85295;SDS011;76389;43.958;2.882;2024-02-23T03:05:07;8.93;;;1.00;;
85295;SDS011;76389;43.958;2.882;2024-02-23T03:07:33;8.25;;;1.42;;
85295;SDS011;76389;43.958;2.882;2024-02-23T03:09:59;9.80;;;1.13;;
85295;SDS011;76389;43.958;2.882;2024-02-23T03:12:25;11.70;;;1.55;;
85295;SDS011;76389;43.958;2.882;2024-02-23T03:14:51;5.57;;;1.48;;
85295;SDS011;76389;43.958;2.882;2024-02-23T03:17:18;6.30;;;1.52;;
85295;SDS011;76389;43.958;2.882;2024-02-23T03:19:44;6.78;;;0.70;;
85295;SDS011;76389;43.958;2.882;2024-02-23T03:22:10;10.88;;;1.00;;
85295;SDS011;76389;43.958;2.882;2024-02-23T03:24:36;6.20;;;1.23;;
85295;SDS011;76389;43.958;2.882;2024-02-23T03:27:03;13.45;;;1.00;;
85295;SDS011;76389;43.958;2.882;2024-02-23T03:29:29;6.45;;;1.00;;
85295;SDS011;76389;43.958;2.882;2024-02-23T03:31:55;3.45;;;0.63;;
85295;SDS011;76389;43.958;2.882;2024-02-23T03:34:22;13.88;;;1.42;;
85295;SDS011;76389;43.958;2.882;2024-02-23T03:36:48;9.65;;;1.02;;
85295;SDS011;76389;43.958;2.882;2024-02-23T03:39:14;7.35;;;1.00;;
85295;SDS011;76389;43.958;2.882;2024-02-23T03:41:40;13.65;;;1.55;;
85295;SDS011;76389;43.958;2.882;2024-02-23T03:44:06;4.10;;;0.65;;
85295;SDS011;76389;43.958;2.882;2024-02-23T03:46:33;13.18;;;1.52;;
85295;SDS011;76389;43.958;2.882;2024-02-23T03:49:03;11.43;;;1.17;;
85295;SDS011;76389;43.958;2.882;2024-02-23T03:51:29;9.13;;;1.35;;
85295;SDS011;76389;43.958;2.882;2024-02-23T03:53:58;8.60;;;1.30;;
85295;SDS011;76389;43.958;2.882;2024-02-23T03:56:24;11.57;;;1.85;;
85295;SDS011;76389;43.958;2.882;2024-02-23T03:58:50;5.60;;;0.90;;
85295;SDS011;76389;43.958;2.882;2024-02-23T04:01:16;10.70;;;1.13;;
85295;SDS011;76389;43.958;2.882;2024-02-23T04:03:42;9.75;;;1.48;;
85295;SDS011;76389;43.958;2.882;2024-02-23T04:06:09;6.95;;;1.02;;
85295;SDS011;76389;43.958;2.882;2024-02-23T04:08:35;8.43;;;1.35;;
85295;SDS011;76389;43.958;2.882;2024-02-23T04:11:01;8.38;;;0.93;;
85295;SDS011;76389;43.958;2.882;2024-02-23T04:13:27;12.82;;;1.42;;
85295;SDS011;76389;43.958;2.882;2024-02-23T04:15:54;4.97;;;1.55;;
85295;SDS011;76389;43.958;2.882;2024-02-23T04:18:20;8.82;;;1.48;;
85295;SDS011;76389;43.958;2.882;2024-02-23T04:20:46;10.52;;;1.27;;
85295;SDS011;76389;43.958;2.882;2024-02-23T04:23:12;13.38;;;2.40;;
85295;SDS011;76389;43.958;2.882;2024-02-23T04:25:38;6.05;;;1.23;;
85295;SDS011;76389;43.958;2.882;2024-02-23T04:28:04;7.63;;;1.30;;
85295;SDS011;76389;43.958;2.882;2024-02-23T04:30:31;9.30;;;1.13;;
85295;SDS011;76389;43.958;2.882;2024-02-23T04:32:57;5.30;;;1.30;;
85295;SDS011;76389;43.958;2.882;2024-02-23T04:35:23;7.13;;;1.23;;
85295;SDS011;76389;43.958;2.882;2024-02-23T04:37:49;9.73;;;1.23;;
85295;SDS011;76389;43.958;2.882;2024-02-23T04:40:15;11.93;;;1.25;;
85295;SDS011;76389;43.958;2.882;2024-02-23T04:42:43;4.55;;;0.95;;
85295;SDS011;76389;43.958;2.882;2024-02-23T04:45:10;10.73;;;1.00;;
85295;SDS011;76389;43.958;2.882;2024-02-23T04:47:36;5.40;;;1.42;;
85295;SDS011;76389;43.958;2.882;2024-02-23T04:50:02;9.63;;;1.40;;
85295;SDS011;76389;43.958;2.882;2024-02-23T04:52:29;9.50;;;0.93;;
85295;SDS011;76389;43.958;2.882;2024-02-23T04:54:55;4.45;;;1.58;;
85295;SDS011;76389;43.958;2.882;2024-02-23T04:57:21;6.63;;;0.90;;
85295;SDS011;76389;43.958;2.882;2024-02-23T04:59:47;4.07;;;0.50;;
85295;SDS011;76389;43.958;2.882;2024-02-23T05:02:13;6.20;;;1.05;;
85295;SDS011;76389;43.958;2.882;2024-02-23T05:04:40;7.38;;;1.20;;
85295;SDS011;76389;43.958;2.882;2024-02-23T05:07:06;6.30;;;1.58;;
85295;SDS011;76389;43.958;2.882;2024-02-23T05:09:32;4.63;;;1.35;;
85295;SDS011;76389;43.958;2.882;2024-02-23T05:11:58;2.25;;;0.70;;
85295;SDS011;76389;43.958;2.882;2024-02-23T05:14:24;5.95;;;0.60;;
85295;SDS011;76389;43.958;2.882;2024-02-23T05:16:50;6.47;;;0.90;;
85295;SDS011;76389;43.958;2.882;2024-02-23T05:19:16;7.03;;;1.50;;
85295;SDS011;76389;43.958;2.882;2024-02-23T05:21:42;3.00;;;0.95;;
85295;SDS011;76389;43.958;2.882;2024-02-23T05:24:10;4.85;;;0.93;;
85295;SDS011;76389;43.958;2.882;2024-02-23T05:26:36;5.75;;;0.68;;
85295;SDS011;76389;43.958;2.882;2024-02-23T05:29:02;7.07;;;1.05;;
85295;SDS011;76389;43.958;2.882;2024-02-23T05:31:45;6.57;;;0.60;;
85295;SDS011;76389;43.958;2.882;2024-02-23T05:34:13;6.57;;;1.25;;
85295;SDS011;76389;43.958;2.882;2024-02-23T05:36:39;9.05;;;0.88;;
85295;SDS011;76389;43.958;2.882;2024-02-23T05:39:06;10.05;;;1.50;;
85295;SDS011;76389;43.958;2.882;2024-02-23T05:41:33;12.00;;;1.55;;
85295;SDS011;76389;43.958;2.882;2024-02-23T05:43:59;6.65;;;0.70;;
85295;SDS011;76389;43.958;2.882;2024-02-23T05:46:25;5.55;;;1.20;;
85295;SDS011;76389;43.958;2.882;2024-02-23T05:48:51;5.40;;;0.60;;
85295;SDS011;76389;43.958;2.882;2024-02-23T05:51:17;4.80;;;0.65;;
85295;SDS011;76389;43.958;2.882;2024-02-23T05:53:43;3.70;;;1.17;;
85295;SDS011;76389;43.958;2.882;2024-02-23T05:56:09;5.20;;;0.75;;
85295;SDS011;76389;43.958;2.882;2024-02-23T05:58:35;4.60;;;0.70;;
85295;SDS011;76389;43.958;2.882;2024-02-23T06:01:01;4.88;;;0.60;;
85295;SDS011;76389;43.958;2.882;2024-02-23T06:03:27;5.05;;;0.63;;
85295;SDS011;76389;43.958;2.882;2024-02-23T06:05:54;5.03;;;1.20;;
85295;SDS011;76389;43.958;2.882;2024-02-23T06:08:20;2.80;;;0.73;;
85295;SDS011;76389;43.958;2.882;2024-02-23T06:10:46;2.95;;;1.00;;
85295;SDS011;76389;43.958;2.882;2024-02-23T06:13:12;4.15;;;0.98;;
85295;SDS011;76389;43.958;2.882;2024-02-23T06:15:38;3.85;;;0.88;;
85295;SDS011;76389;43.958;2.882;2024-02-23T06:18:04;5.45;;;0.47;;
85295;SDS011;76389;43.958;2.882;2024-02-23T06:20:30;2.95;;;0.73;;
85295;SDS011;76389;43.958;2.882;2024-02-23T06:22:57;6.43;;;1.15;;
85295;SDS011;76389;43.958;2.882;2024-02-23T06:25:23;4.45;;;1.20;;
85295;SDS011;76389;43.958;2.882;2024-02-23T06:27:49;5.13;;;0.73;;
85295;SDS011;76389;43.958;2.882;2024-02-23T06:30:15;4.57;;;0.82;;
85295;SDS011;76389;43.958;2.882;2024-02-23T06:32:42;4.25;;;0.85;;
85295;SDS011;76389;43.958;2.882;2024-02-23T06:35:09;4.45;;;1.25;;
85295;SDS011;76389;43.958;2.882;2024-02-23T06:37:37;5.70;;;0.45;;
85295;SDS011;76389;43.958;2.882;2024-02-23T06:40:03;8.40;;;0.90;;
85295;SDS011;76389;43.958;2.882;2024-02-23T06:42:30;3.47;;;0.75;;
85295;SDS011;76389;43.958;2.882;2024-02-23T06:44:56;7.90;;;1.05;;
85295;SDS011;76389;43.958;2.882;2024-02-23T06:47:22;3.10;;;0.98;;
85295;SDS011;76389;43.958;2.882;2024-02-23T06:49:48;4.18;;;0.90;;
85295;SDS011;76389;43.958;2.882;2024-02-23T06:52:14;4.57;;;0.70;;
85295;SDS011;76389;43.958;2.882;2024-02-23T06:54:40;9.02;;;0.88;;
85295;SDS011;76389;43.958;2.882;2024-02-23T06:57:06;5.28;;;1.27;;
85295;SDS011;76389;43.958;2.882;2024-02-23T06:59:33;4.13;;;1.45;;
85295;SDS011;76389;43.958;2.882;2024-02-23T07:01:59;4.10;;;0.35;;
85295;SDS011;76389;43.958;2.882;2024-02-23T07:04:25;3.72;;;0.88;;
85295;SDS011;76389;43.958;2.882;2024-02-23T07:06:51;1.40;;;0.80;;
85295;SDS011;76389;43.958;2.882;2024-02-23T07:09:17;2.13;;;0.43;;
85295;SDS011;76389;43.958;2.882;2024-02-23T07:11:43;5.80;;;1.05;;
85295;SDS011;76389;43.958;2.882;2024-02-23T07:14:10;3.90;;;0.98;;
85295;SDS011;76389;43.958;2.882;2024-02-23T07:19:06;1.40;;;1.13;;
85295;SDS011;76389;43.958;2.882;2024-02-23T07:21:32;1.77;;;0.22;;
85295;SDS011;76389;43.958;2.882;2024-02-23T07:23:59;3.08;;;0.80;;
85295;SDS011;76389;43.958;2.882;2024-02-23T07:26:26;2.72;;;0.20;;
85295;SDS011;76389;43.958;2.882;2024-02-23T07:28:54;3.45;;;0.63;;
85295;SDS011;76389;43.958;2.882;2024-02-23T07:31:21;5.38;;;0.65;;
85295;SDS011;76389;43.958;2.882;2024-02-23T07:33:47;2.78;;;0.65;;
85295;SDS011;76389;43.958;2.882;2024-02-23T07:36:14;2.75;;;0.60;;
85295;SDS011;76389;43.958;2.882;2024-02-23T07:38:40;1.75;;;0.32;;
85295;SDS011;76389;43.958;2.882;2024-02-23T07:41:06;2.30;;;0.82;;
85295;SDS011;76389;43.958;2.882;2024-02-23T07:43:33;2.55;;;0.25;;
85295;SDS011;76389;43.958;2.882;2024-02-23T07:45:59;3.20;;;0.40;;
85295;SDS011;76389;43.958;2.882;2024-02-23T07:48:25;1.55;;;0.50;;
85295;SDS011;76389;43.958;2.882;2024-02-23T07:50:51;0.50;;;0.10;;
85295;SDS011;76389;43.958;2.882;2024-02-23T07:53:17;2.80;;;0.17;;
85295;SDS011;76389;43.958;2.882;2024-02-23T07:55:43;2.08;;;0.35;;
85295;SDS011;76389;43.958;2.882;2024-02-23T07:58:09;1.77;;;0.20;;
85295;SDS011;76389;43.958;2.882;2024-02-23T08:00:35;1.65;;;0.75;;
85295;SDS011;76389;43.958;2.882;2024-02-23T08:03:03;1.10;;;0.30;;
85295;SDS011;76389;43.958;2.882;2024-02-23T08:05:30;0.32;;;0.15;;
85295;SDS011;76389;43.958;2.882;2024-02-23T08:07:56;2.05;;;0.63;;
85295;SDS011;76389;43.958;2.882;2024-02-23T08:10:22;3.72;;;0.75;;
85295;SDS011;76389;43.958;2.882;2024-02-23T08:12:48;3.38;;;1.50;;
85295;SDS011;76389;43.958;2.882;2024-02-23T08:15:14;2.05;;;0.80;;
85295;SDS011;76389;43.958;2.882;2024-02-23T08:17:40;2.85;;;0.88;;
85295;SDS011;76389;43.958;2.882;2024-02-23T08:20:07;1.88;;;0.93;;
85295;SDS011;76389;43.958;2.882;2024-02-23T08:22:33;1.50;;;0.40;;
85295;SDS011;76389;43.958;2.882;2024-02-23T08:24:59;1.00;;;0.20;;
85295;SDS011;76389;43.958;2.882;2024-02-23T08:27:25;1.48;;;0.52;;
85295;SDS011;76389;43.958;2.882;2024-02-23T08:29:52;1.10;;;0.85;;
85295;SDS011;76389;43.958;2.882;2024-02-23T08:32:18;1.38;;;0.43;;
85295;SDS011;76389;43.958;2.882;2024-02-23T08:34:45;0.90;;;0.22;;
85295;SDS011;76389;43.958;2.882;2024-02-23T08:37:12;0.77;;;0.22;;
85295;SDS011;76389;43.958;2.882;2024-02-23T08:39:38;2.33;;;0.70;;
85295;SDS011;76389;43.958;2.882;2024-02-23T08:42:04;1.73;;;0.70;;
85295;SDS011;76389;43.958;2.882;2024-02-23T08:44:30;0.77;;;0.60;;
85295;SDS011;76389;43.958;2.882;2024-02-23T08:46:56;0.68;;;0.20;;
85295;SDS011;76389;43.958;2.882;2024-02-23T08:49:22;2.45;;;0.28;;
85295;SDS011;76389;43.958;2.882;2024-02-23T08:51:48;2.08;;;0.70;;
85295;SDS011;76389;43.958;2.882;2024-02-23T08:54:14;7.65;;;0.80;;
85295;SDS011;76389;43.958;2.882;2024-02-23T08:56:41;1.42;;;0.73;;
85295;SDS011;76389;43.958;2.882;2024-02-23T08:59:08;1.73;;;0.95;;
85295;SDS011;76389;43.958;2.882;2024-02-23T09:01:35;2.28;;;0.47;;
85295;SDS011;76389;43.958;2.882;2024-02-23T09:04:01;2.85;;;0.43;;
85295;SDS011;76389;43.958;2.882;2024-02-23T09:06:28;0.57;;;0.25;;
85295;SDS011;76389;43.958;2.882;2024-02-23T09:08:55;1.35;;;0.73;;
85295;SDS011;76389;43.958;2.882;2024-02-23T09:11:22;2.42;;;0.80;;
85295;SDS011;76389;43.958;2.882;2024-02-23T09:13:48;1.23;;;0.68;;
85295;SDS011;76389;43.958;2.882;2024-02-23T09:16:14;0.57;;;0.30;;
85295;SDS011;76389;43.958;2.882;2024-02-23T09:18:40;5.40;;;0.50;;
85295;SDS011;76389;43.958;2.882;2024-02-23T09:21:06;1.50;;;0.32;;
85295;SDS011;76389;43.958;2.882;2024-02-23T09:23:32;1.52;;;0.10;;
85295;SDS011;76389;43.958;2.882;2024-02-23T09:25:59;0.70;;;0.68;;
85295;SDS011;76389;43.958;2.882;2024-02-23T09:28:25;1.67;;;0.63;;
85295;SDS011;76389;43.958;2.882;2024-02-23T09:30:51;1.13;;;0.55;;
85295;SDS011;76389;43.958;2.882;2024-02-23T09:33:17;1.42;;;0.52;;
85295;SDS011;76389;43.958;2.882;2024-02-23T09:35:43;1.60;;;0.60;;
85295;SDS011;76389;43.958;2.882;2024-02-23T09:38:09;5.05;;;0.80;;
85295;SDS011;76389;43.958;2.882;2024-02-23T09:40:35;2.20;;;0.47;;
85295;SDS011;76389;43.958;2.882;2024-02-23T09:43:01;2.65;;;0.73;;
85295;SDS011;76389;43.958;2.882;2024-02-23T09:45:27;1.77;;;0.20;;
85295;SDS011;76389;43.958;2.882;2024-02-23T09:47:55;1.40;;;0.50;;
85295;SDS011;76389;43.958;2.882;2024-02-23T09:50:22;0.60;;;0.20;;
85295;SDS011;76389;43.958;2.882;2024-02-23T09:52:49;3.38;;;0.30;;
85295;SDS011;76389;43.958;2.882;2024-02-23T09:55:16;0.88;;;0.43;;
85295;SDS011;76389;43.958;2.882;2024-02-23T09:57:44;2.00;;;0.40;;
85295;SDS011;76389;43.958;2.882;2024-02-23T10:00:11;0.57;;;0.40;;
85295;SDS011;76389;43.958;2.882;2024-02-23T10:02:38;0.75;;;0.52;;
85295;SDS011;76389;43.958;2.882;2024-02-23T10:05:05;0.90;;;0.32;;
85295;SDS011;76389;43.958;2.882;2024-02-23T10:07:33;0.38;;;0.10;;
85295;SDS011;76389;43.958;2.882;2024-02-23T10:09:59;0.93;;;0.20;;
85295;SDS011;76389;43.958;2.882;2024-02-23T10:12:26;2.03;;;0.35;;
85295;SDS011;76389;43.958;2.882;2024-02-23T10:14:53;3.20;;;0.77;;
85295;SDS011;76389;43.958;2.882;2024-02-23T10:17:20;1.52;;;0.25;;
85295;SDS011;76389;43.958;2.882;2024-02-23T10:19:46;0.93;;;0.68;;
85295;SDS011;76389;43.958;2.882;2024-02-23T10:22:13;9.23;;;1.45;;
85295;SDS011;76389;43.958;2.882;2024-02-23T10:24:39;0.98;;;0.30;;
85295;SDS011;76389;43.958;2.882;2024-02-23T10:27:05;1.33;;;0.52;;
85295;SDS011;76389;43.958;2.882;2024-02-23T10:29:31;0.63;;;0.43;;
85295;SDS011;76389;43.958;2.882;2024-02-23T10:31:57;4.22;;;0.30;;
85295;SDS011;76389;43.958;2.882;2024-02-23T10:34:24;0.65;;;0.38;;
85295;SDS011;76389;43.958;2.882;2024-02-23T10:36:50;0.50;;;0.30;;
85295;SDS011;76389;43.958;2.882;2024-02-23T10:39:18;3.25;;;0.30;;
85295;SDS011;76389;43.958;2.882;2024-02-23T10:41:50;2.88;;;0.50;;
85295;SDS011;76389;43.958;2.882;2024-02-23T10:44:21;1.10;;;0.73;;
85295;SDS011;76389;43.958;2.882;2024-02-23T10:46:47;2.60;;;0.55;;
85295;SDS011;76389;43.958;2.882;2024-02-23T10:49:15;3.28;;;0.32;;
85295;SDS011;76389;43.958;2.882;2024-02-23T10:51:42;0.80;;;0.22;;
85295;SDS011;76389;43.958;2.882;2024-02-23T10:54:09;0.82;;;0.25;;
85295;SDS011;76389;43.958;2.882;2024-02-23T10:56:35;2.15;;;0.75;;
85295;SDS011;76389;43.958;2.882;2024-02-23T10:59:02;1.17;;;0.55;;
85295;SDS011;76389;43.958;2.882;2024-02-23T11:01:30;0.60;;;0.60;;
85295;SDS011;76389;43.958;2.882;2024-02-23T11:03:58;1.27;;;0.60;;
85295;SDS011;76389;43.958;2.882;2024-02-23T11:06:28;1.40;;;0.82;;
85295;SDS011;76389;43.958;2.882;2024-02-23T11:09:04;4.45;;;0.40;;
85295;SDS011;76389;43.958;2.882;2024-02-23T11:11:31;0.82;;;0.22;;
85295;SDS011;76389;43.958;2.882;2024-02-23T11:13:57;1.48;;;0.55;;
85295;SDS011;76389;43.958;2.882;2024-02-23T11:16:23;1.27;;;0.57;;
85295;SDS011;76389;43.958;2.882;2024-02-23T11:19:03;0.73;;;0.35;;
85295;SDS011;76389;43.958;2.882;2024-02-23T11:21:33;0.52;;;0.40;;
85295;SDS011;76389;43.958;2.882;2024-02-23T11:24:03;0.75;;;0.50;;
85295;SDS011;76389;43.958;2.882;2024-02-23T11:26:30;1.55;;;0.65;;
85295;SDS011;76389;43.958;2.882;2024-02-23T11:28:58;0.80;;;0.52;;
85295;SDS011;76389;43.958;2.882;2024-02-23T11:31:25;0.80;;;0.50;;
85295;SDS011;76389;43.958;2.882;2024-02-23T11:33:55;0.82;;;0.20;;
85295;SDS011;76389;43.958;2.882;2024-02-23T11:38:53;1.30;;;1.20;;
85295;SDS011;76389;43.958;2.882;2024-02-23T11:41:21;1.23;;;0.57;;
85295;SDS011;76389;43.958;2.882;2024-02-23T11:43:49;1.10;;;0.20;;
85295;SDS011;76389;43.958;2.882;2024-02-23T11:46:16;2.15;;;0.63;;
85295;SDS011;76389;43.958;2.882;2024-02-23T11:48:43;2.00;;;0.40;;
85295;SDS011;76389;43.958;2.882;2024-02-23T11:51:09;3.13;;;0.40;;
85295;SDS011;76389;43.958;2.882;2024-02-23T11:53:36;0.90;;;0.20;;
85295;SDS011;76389;43.958;2.882;2024-02-23T11:56:04;1.98;;;0.20;;
85295;SDS011;76389;43.958;2.882;2024-02-23T11:58:31;7.03;;;0.50;;
85295;SDS011;76389;43.958;2.882;2024-02-23T12:00:59;1.80;;;0.80;;
85295;SDS011;76389;43.958;2.882;2024-02-23T12:03:28;2.20;;;1.23;;
85295;SDS011;76389;43.958;2.882;2024-02-23T12:05:57;1.10;;;0.57;;
85295;SDS011;76389;43.958;2.882;2024-02-23T12:08:24;1.48;;;0.68;;
85295;SDS011;76389;43.958;2.882;2024-02-23T12:10:52;0.98;;;0.30;;
85295;SDS011;76389;43.958;2.882;2024-02-23T12:13:19;2.03;;;0.93;;
85295;SDS011;76389;43.958;2.882;2024-02-23T12:15:46;2.10;;;0.80;;
85295;SDS011;76389;43.958;2.882;2024-02-23T12:18:13;0.73;;;0.57;;
85295;SDS011;76389;43.958;2.882;2024-02-23T12:20:40;4.07;;;0.60;;
85295;SDS011;76389;43.958;2.882;2024-02-23T12:23:06;1.60;;;0.40;;
85295;SDS011;76389;43.958;2.882;2024-02-23T12:25:34;1.98;;;0.32;;
85295;SDS011;76389;43.958;2.882;2024-02-23T12:28:00;3.33;;;1.33;;
85295;SDS011;76389;43.958;2.882;2024-02-23T12:30:26;1.88;;;1.05;;
85295;SDS011;76389;43.958;2.882;2024-02-23T12:33:05;2.38;;;0.25;;
85295;SDS011;76389;43.958;2.882;2024-02-23T12:35:33;1.00;;;0.70;;
85295;SDS011;76389;43.958;2.882;2024-02-23T12:37:59;2.25;;;0.85;;
85295;SDS011;76389;43.958;2.882;2024-02-23T12:40:25;1.98;;;0.45;;
85295;SDS011;76389;43.958;2.882;2024-02-23T12:42:51;1.90;;;0.80;;
85295;SDS011;76389;43.958;2.882;2024-02-23T12:45:18;2.22;;;0.40;;
85295;SDS011;76389;43.958;2.882;2024-02-23T12:47:44;0.50;;;0.13;;
85295;SDS011;76389;43.958;2.882;2024-02-23T12:50:10;2.38;;;0.50;;
85295;SDS011;76389;43.958;2.882;2024-02-23T12:52:36;2.35;;;0.47;;
85295;SDS011;76389;43.958;2.882;2024-02-23T12:55:02;2.70;;;0.80;;
85295;SDS011;76389;43.958;2.882;2024-02-23T12:57:29;1.27;;;0.30;;
85295;SDS011;76389;43.958;2.882;2024-02-23T12:59:55;1.48;;;0.55;;
85295;SDS011;76389;43.958;2.882;2024-02-23T13:02:21;0.90;;;0.38;;
85295;SDS011;76389;43.958;2.882;2024-02-23T13:04:47;1.63;;;0.40;;
85295;SDS011;76389;43.958;2.882;2024-02-23T13:07:14;2.38;;;0.35;;
85295;SDS011;76389;43.958;2.882;2024-02-23T13:09:42;0.85;;;0.20;;
85295;SDS011;76389;43.958;2.882;2024-02-23T13:12:08;0.98;;;0.38;;
85295;SDS011;76389;43.958;2.882;2024-02-23T13:14:34;0.80;;;0.50;;
85295;SDS011;76389;43.958;2.882;2024-02-23T13:17:00;1.73;;;0.13;;
85295;SDS011;76389;43.958;2.882;2024-02-23T13:19:26;1.52;;;0.32;;
85295;SDS011;76389;43.958;2.882;2024-02-23T13:21:52;1.30;;;0.50;;
85295;SDS011;76389;43.958;2.882;2024-02-23T13:24:18;0.70;;;0.22;;
85295;SDS011;76389;43.958;2.882;2024-02-23T13:26:45;1.25;;;0.88;;
85295;SDS011;76389;43.958;2.882;2024-02-23T13:29:11;0.88;;;0.55;;
85295;SDS011;76389;43.958;2.882;2024-02-23T13:31:37;2.28;;;0.35;;
85295;SDS011;76389;43.958;2.882;2024-02-23T13:34:05;1.80;;;0.60;;
85295;SDS011;76389;43.958;2.882;2024-02-23T13:36:32;1.58;;;0.68;;
85295;SDS011;76389;43.958;2.882;2024-02-23T13:38:58;1.35;;;0.40;;
85295;SDS011;76389;43.958;2.882;2024-02-23T13:41:24;5.85;;;0.77;;
85295;SDS011;76389;43.958;2.882;2024-02-23T13:43:50;1.20;;;0.60;;
85295;SDS011;76389;43.958;2.882;2024-02-23T13:46:16;2.10;;;0.65;;
85295;SDS011;76389;43.958;2.882;2024-02-23T13:48:42;1.25;;;0.68;;
85295;SDS011;76389;43.958;2.882;2024-02-23T13:51:08;0.40;;;0.15;;
85295;SDS011;76389;43.958;2.882;2024-02-23T13:53:34;1.90;;;0.40;;
85295;SDS011;76389;43.958;2.882;2024-02-23T13:56:02;0.30;;;0.10;;
85295;SDS011;76389;43.958;2.882;2024-02-23T13:58:29;2.72;;;0.40;;
85295;SDS011;76389;43.958;2.882;2024-02-23T14:00:55;2.35;;;1.33;;
85295;SDS011;76389;43.958;2.882;2024-02-23T14:03:21;0.65;;;0.13;;
85295;SDS011;76389;43.958;2.882;2024-02-23T14:05:48;1.58;;;0.43;;
85295;SDS011;76389;43.958;2.882;2024-02-23T14:08:14;0.70;;;0.52;;
85295;SDS011;76389;43.958;2.882;2024-02-23T14:10:40;0.50;;;0.13;;
85295;SDS011;76389;43.958;2.882;2024-02-23T14:13:08;0.80;;;0.50;;
85295;SDS011;76389;43.958;2.882;2024-02-23T14:15:34;0.98;;;0.55;;
85295;SDS011;76389;43.958;2.882;2024-02-23T14:18:00;2.03;;;0.75;;
85295;SDS011;76389;43.958;2.882;2024-02-23T14:20:26;0.65;;;0.25;;
85295;SDS011;76389;43.958;2.882;2024-02-23T14:22:53;0.80;;;0.57;;
85295;SDS011;76389;43.958;2.882;2024-02-23T14:25:19;2.00;;;0.70;;
85295;SDS011;76389;43.958;2.882;2024-02-23T14:27:45;1.48;;;0.70;;
85295;SDS011;76389;43.958;2.882;2024-02-23T14:30:13;1.50;;;0.55;;
85295;SDS011;76389;43.958;2.882;2024-02-23T14:32:39;2.45;;;0.45;;
85295;SDS011;76389;43.958;2.882;2024-02-23T14:35:07;1.40;;;0.55;;
85295;SDS011;76389;43.958;2.882;2024-02-23T14:37:34;1.13;;;0.50;;
85295;SDS011;76389;43.958;2.882;2024-02-23T14:40:00;1.73;;;0.15;;
85295;SDS011;76389;43.958;2.882;2024-02-23T14:42:27;0.57;;;0.10;;
85295;SDS011;76389;43.958;2.882;2024-02-23T14:44:53;1.55;;;0.70;;
85295;SDS011;76389;43.958;2.882;2024-02-23T14:47:19;0.85;;;0.20;;